createdAt,value
2019-02-21T00:01:53.374Z,27.77
2019-02-21T00:04:24.029Z,24.37
2019-02-21T00:06:54.670Z,20.63
2019-02-21T00:09:25.370Z,25.97
2019-02-21T00:11:56.042Z,24.37
2019-02-21T00:14:26.754Z,30.33
2019-02-21T00:16:57.462Z,30.70
2019-02-21T00:19:28.197Z,26.37
2019-02-21T00:21:58.883Z,23.27
2019-02-21T00:24:29.599Z,23.57
2019-02-21T00:27:00.255Z,24.43
2019-02-21T00:29:30.990Z,22.90
2019-02-21T00:32:01.678Z,28.73
2019-02-21T00:34:32.345Z,25.43
2019-02-21T00:37:04.042Z,23.90
2019-02-21T00:39:34.750Z,26.03
2019-02-21T00:42:05.453Z,28.20
2019-02-21T00:44:36.139Z,30.70
2019-02-21T00:47:06.816Z,31.23
2019-02-21T00:49:37.573Z,30.13
2019-02-21T00:52:08.299Z,29.03
2019-02-21T00:54:38.981Z,26.43
2019-02-21T00:57:09.643Z,31.73
2019-02-21T00:59:40.357Z,28.50
2019-02-21T01:02:11.059Z,29.80
2019-02-21T01:04:41.664Z,25.27
2019-02-21T01:07:12.396Z,27.70
2019-02-21T01:09:43.063Z,29.87
2019-02-21T01:12:13.759Z,29.53
2019-02-21T01:14:44.426Z,26.83
2019-02-21T01:17:15.081Z,35.03
2019-02-21T01:19:45.778Z,31.00
2019-02-21T01:22:16.474Z,30.30
2019-02-21T01:24:47.155Z,28.50
2019-02-21T01:27:17.858Z,33.03
2019-02-21T01:29:48.547Z,34.43
2019-02-21T01:32:19.254Z,31.63
2019-02-21T01:34:49.925Z,31.27
2019-02-21T01:37:21.746Z,31.23
2019-02-21T01:39:52.428Z,33.03
2019-02-21T01:42:23.156Z,33.40
2019-02-21T01:44:53.861Z,32.97
2019-02-21T01:47:24.579Z,30.37
2019-02-21T01:49:55.293Z,31.93
2019-02-21T01:52:25.969Z,35.03
2019-02-21T01:54:56.647Z,38.37
2019-02-21T01:57:27.372Z,32.97
2019-02-21T01:59:57.978Z,36.27
2019-02-21T02:02:28.674Z,33.77
2019-02-21T02:04:59.341Z,32.33
2019-02-21T02:07:30.037Z,31.03
2019-02-21T02:10:00.696Z,36.03
2019-02-21T02:12:31.439Z,38.83
2019-02-21T02:15:02.106Z,31.97
2019-02-21T02:17:32.834Z,36.40
2019-02-21T02:20:03.557Z,34.43
2019-02-21T02:22:34.264Z,33.80
2019-02-21T02:25:05.081Z,35.77
2019-02-21T02:27:35.678Z,33.53
2019-02-21T02:30:07.231Z,44.23
2019-02-21T02:32:37.891Z,43.03
2019-02-21T02:35:08.786Z,42.87
2019-02-21T02:37:39.465Z,39.30
2019-02-21T02:40:10.190Z,43.37
2019-02-21T02:42:40.919Z,39.33
2019-02-21T02:45:11.631Z,35.00
2019-02-21T02:47:42.257Z,36.80
2019-02-21T02:50:13.035Z,35.57
2019-02-21T02:52:43.770Z,35.17
2019-02-21T02:55:14.478Z,39.93
2019-02-21T02:57:45.162Z,37.43
2019-02-21T03:00:16.176Z,42.37
2019-02-21T03:02:46.847Z,39.17
2019-02-21T03:05:17.555Z,40.90
2019-02-21T03:07:48.247Z,35.90
2019-02-21T03:10:18.914Z,42.90
2019-02-21T03:12:49.640Z,38.43
2019-02-21T03:15:20.358Z,33.03
2019-02-21T03:17:51.043Z,37.30
2019-02-21T03:20:21.789Z,36.03
2019-02-21T03:22:52.472Z,35.30
2019-02-21T03:25:23.203Z,43.97
2019-02-21T03:27:53.918Z,40.10
2019-02-21T03:30:24.627Z,44.50
2019-02-21T03:32:55.321Z,46.37
2019-02-21T03:35:26.094Z,38.80
2019-02-21T03:37:56.849Z,47.70
2019-02-21T03:40:27.610Z,46.30
2019-02-21T03:42:58.315Z,41.23
2019-02-21T03:45:29.101Z,42.43
2019-02-21T03:47:59.868Z,44.33
2019-02-21T03:50:30.658Z,44.93
2019-02-21T03:53:01.413Z,40.10
2019-02-21T03:55:32.118Z,41.00
2019-02-21T03:58:02.892Z,42.47
2019-02-21T04:00:33.618Z,45.17
2019-02-21T04:03:04.565Z,39.47
2019-02-21T04:05:35.301Z,44.47
2019-02-21T04:08:06.091Z,43.23
2019-02-21T04:10:36.833Z,41.93
2019-02-21T04:13:07.610Z,44.03
2019-02-21T04:15:38.328Z,39.53
2019-02-21T04:18:10.423Z,36.57
2019-02-21T04:20:41.198Z,37.00
2019-02-21T04:23:11.966Z,40.80
2019-02-21T04:25:42.751Z,38.43
2019-02-21T04:28:13.477Z,44.70
2019-02-21T04:30:44.244Z,46.40
2019-02-21T04:33:14.990Z,42.60
2019-02-21T04:35:45.755Z,48.97
2019-02-21T04:38:16.543Z,46.53
2019-02-21T04:40:47.302Z,48.90
2019-02-21T04:43:18.115Z,45.77
2019-02-21T04:45:48.882Z,55.53
2019-02-21T04:48:20.536Z,48.80
2019-02-21T04:50:54.270Z,51.53
2019-02-21T04:53:23.711Z,52.70
2019-02-21T04:55:54.505Z,49.10
2019-02-21T04:58:25.272Z,56.57
2019-02-21T05:00:55.998Z,52.40
2019-02-21T05:03:26.726Z,54.67
2019-02-21T05:05:57.520Z,53.53
2019-02-21T05:08:28.252Z,51.30
2019-02-21T05:10:59.015Z,50.37
2019-02-21T05:13:29.750Z,43.27
2019-02-21T05:16:00.475Z,49.17
2019-02-21T05:18:31.233Z,50.33
2019-02-21T05:21:02.025Z,45.97
2019-02-21T05:23:32.753Z,52.00
2019-02-21T05:26:03.673Z,44.43
2019-02-21T05:28:34.467Z,50.27
2019-02-21T05:31:12.598Z,48.37
2019-02-21T05:33:52.162Z,47.57
2019-02-21T05:36:29.560Z,56.40
2019-02-21T05:39:19.279Z,54.00
2019-02-21T05:41:55.587Z,53.93
2019-02-21T05:44:33.667Z,59.90
2019-02-21T05:47:29.053Z,55.53
2019-02-21T05:50:19.729Z,55.30
2019-02-21T05:53:14.925Z,65.20
2019-02-21T05:55:53.569Z,59.63
2019-02-21T05:58:52.302Z,53.43
2019-02-21T06:01:45.016Z,57.57
2019-02-21T06:04:22.353Z,57.30
2019-02-21T06:07:10.921Z,59.23
2019-02-21T06:09:53.974Z,64.70
2019-02-21T06:12:43.671Z,58.57
2019-02-21T06:15:39.436Z,63.47
2019-02-21T06:18:31.895Z,62.67
2019-02-21T06:21:11.654Z,61.93
2019-02-21T06:23:53.432Z,57.83
2019-02-21T06:26:48.914Z,61.70
2019-02-21T06:29:23.903Z,50.07
2019-02-21T06:31:54.615Z,53.33
2019-02-21T06:34:25.315Z,51.13
2019-02-21T06:36:56.049Z,49.93
2019-02-21T06:39:26.801Z,49.30
2019-02-21T06:41:59.918Z,44.00
2019-02-21T06:44:29.914Z,54.67
2019-02-21T06:47:00.636Z,45.87
2019-02-21T06:49:32.849Z,49.37
2019-02-21T06:52:03.958Z,43.77
2019-02-21T06:54:34.684Z,40.20
2019-02-21T06:57:05.421Z,38.53
2019-02-21T06:59:42.503Z,37.77
2019-02-21T07:02:08.575Z,43.13
2019-02-21T07:04:39.290Z,34.67
2019-02-21T07:07:10.077Z,34.47
2019-02-21T07:09:40.793Z,37.53
2019-02-21T07:12:11.528Z,38.97
2019-02-21T07:14:42.244Z,35.53
2019-02-21T07:17:13.041Z,39.37
2019-02-21T07:19:43.777Z,34.07
2019-02-21T07:22:18.038Z,33.50
2019-02-21T07:24:49.041Z,40.83
2019-02-21T07:27:19.817Z,35.60
2019-02-21T07:29:50.557Z,37.03
2019-02-21T07:32:21.278Z,38.00
2019-02-21T07:34:52.056Z,38.03
2019-02-21T07:37:22.791Z,34.30
2019-02-21T07:39:53.527Z,39.43
2019-02-21T07:42:24.276Z,35.53
2019-02-21T07:44:55.091Z,34.17
2019-02-21T07:47:25.776Z,38.33
2019-02-21T07:49:56.512Z,33.50
2019-02-21T07:52:27.240Z,34.77
2019-02-21T07:55:01.697Z,36.87
2019-02-21T07:57:30.343Z,32.33
2019-02-21T08:00:01.081Z,33.97
2019-02-21T08:02:31.763Z,37.47
2019-02-21T08:05:02.551Z,36.87
2019-02-21T08:07:33.276Z,34.27
2019-02-21T08:10:04.101Z,35.20
2019-02-21T08:12:34.848Z,34.77
2019-02-21T08:15:06.123Z,32.80
2019-02-21T08:17:36.950Z,34.97
2019-02-21T08:20:09.399Z,29.87
2019-02-21T08:22:40.152Z,35.83
2019-02-21T08:25:11.119Z,37.90
2019-02-21T08:27:42.587Z,34.07
2019-02-21T08:30:14.904Z,34.47
2019-02-21T08:33:03.396Z,31.57
2019-02-21T08:35:34.159Z,33.93
2019-02-21T08:38:04.885Z,32.20
2019-02-21T08:40:35.632Z,33.87
2019-02-21T08:43:06.377Z,34.97
2019-02-21T08:45:37.103Z,27.40
2019-02-21T08:48:07.851Z,34.67
2019-02-21T08:50:38.647Z,29.37
2019-02-21T08:53:09.472Z,31.00
2019-02-21T08:55:40.534Z,31.30
2019-02-21T08:58:11.224Z,36.70
2019-02-21T09:00:42.281Z,31.90
2019-02-21T09:03:13.037Z,37.27
2019-02-21T09:05:43.774Z,32.23
2019-02-21T09:08:16.613Z,38.03
2019-02-21T09:10:46.909Z,38.60
2019-02-21T09:13:17.622Z,41.47
2019-02-21T09:15:48.270Z,45.70
2019-02-21T09:18:18.945Z,65.63
2019-02-21T09:20:49.663Z,80.70
2019-02-21T09:23:20.541Z,62.43
2019-02-21T09:25:51.277Z,86.90
2019-02-21T09:28:22.071Z,47.37
2019-02-21T09:30:52.878Z,43.93
2019-02-21T09:33:23.690Z,37.90
2019-02-21T09:35:56.769Z,37.67
2019-02-21T09:38:26.826Z,34.97
2019-02-21T09:40:58.183Z,36.07
2019-02-21T09:43:33.342Z,33.07
2019-02-21T09:46:04.056Z,63.87
2019-02-21T09:48:35.832Z,35.40
2019-02-21T09:51:07.303Z,38.13
2019-02-21T09:53:39.463Z,34.53
2019-02-21T09:56:11.636Z,35.53
2019-02-21T09:58:46.290Z,35.97
2019-02-21T10:01:17.129Z,30.33
2019-02-21T10:03:48.037Z,30.77
2019-02-21T10:06:20.060Z,32.47
2019-02-21T10:08:50.926Z,31.57
2019-02-21T10:11:22.691Z,28.93
2019-02-21T10:13:56.411Z,33.67
2019-02-21T10:16:27.145Z,29.27
2019-02-21T10:18:57.852Z,42.33
2019-02-21T10:21:28.618Z,32.07
2019-02-21T10:23:59.374Z,36.87
2019-02-21T10:26:30.070Z,30.40
2019-02-21T10:29:00.798Z,27.57
2019-02-21T10:31:31.522Z,31.87
2019-02-21T10:34:21.930Z,31.13
2019-02-21T10:36:52.770Z,30.63
2019-02-21T10:39:23.508Z,29.17
2019-02-21T10:41:54.184Z,32.10
2019-02-21T10:44:24.949Z,29.77
2019-02-21T10:46:55.677Z,32.40
2019-02-21T10:49:26.392Z,30.63
2019-02-21T10:51:57.137Z,31.73
2019-02-21T10:54:27.794Z,46.87
2019-02-21T10:56:58.529Z,36.87
2019-02-21T10:59:29.256Z,33.30
2019-02-21T11:01:59.892Z,41.50
2019-02-21T11:04:30.687Z,42.47
2019-02-21T11:07:01.406Z,41.80
2019-02-21T11:09:32.151Z,42.07
2019-02-21T11:12:02.868Z,38.80
2019-02-21T11:14:33.628Z,37.33
2019-02-21T11:17:04.281Z,41.80
2019-02-21T11:19:35.047Z,43.13
2019-02-21T11:22:05.754Z,39.70
2019-02-21T11:24:36.489Z,50.23
2019-02-21T11:27:07.236Z,37.53
2019-02-21T11:29:37.992Z,40.77
2019-02-21T11:32:08.728Z,52.33
2019-02-21T11:34:39.407Z,40.77
2019-02-21T11:37:10.155Z,55.83
2019-02-21T11:39:40.838Z,69.40
2019-02-21T11:42:11.573Z,71.73
2019-02-21T11:44:42.251Z,49.03
2019-02-21T11:47:13.037Z,50.70
2019-02-21T11:49:43.753Z,39.03
2019-02-21T11:52:14.528Z,57.20
2019-02-21T11:54:45.177Z,44.47
2019-02-21T11:57:15.991Z,53.77
2019-02-21T11:59:46.707Z,40.40
2019-02-21T12:02:17.476Z,44.40
2019-02-21T12:04:48.140Z,46.70
2019-02-21T12:07:18.836Z,61.27
2019-02-21T12:09:49.535Z,50.50
2019-02-21T12:12:20.129Z,67.17
2019-02-21T12:14:50.835Z,41.77
2019-02-21T12:17:21.563Z,39.83
2019-02-21T12:19:52.278Z,43.27
2019-02-21T12:22:23.024Z,39.53
2019-02-21T12:24:53.780Z,40.50
2019-02-21T12:27:24.513Z,45.33
2019-02-21T12:29:55.233Z,34.03
2019-02-21T12:32:25.959Z,47.40
2019-02-21T12:34:56.666Z,37.50
2019-02-21T12:37:27.406Z,39.43
2019-02-21T12:39:58.128Z,40.77
2019-02-21T12:42:28.796Z,53.03
2019-02-21T12:44:59.452Z,39.07
2019-02-21T12:47:30.101Z,36.20
2019-02-21T12:50:00.874Z,32.60
2019-02-21T12:52:31.722Z,31.93
2019-02-21T12:55:02.466Z,35.73
2019-02-21T12:57:33.202Z,33.40
2019-02-21T13:00:04.083Z,34.70
2019-02-21T13:02:34.798Z,30.73
2019-02-21T13:05:05.581Z,30.13
2019-02-21T13:07:36.308Z,26.80
2019-02-21T13:10:09.706Z,26.60
2019-02-21T13:12:40.472Z,32.97
2019-02-21T13:15:12.317Z,33.00
2019-02-21T13:17:43.065Z,30.67
2019-02-21T13:20:14.082Z,24.47
2019-02-21T13:22:44.818Z,28.27
2019-02-21T13:25:15.675Z,31.43
2019-02-21T13:27:46.359Z,28.73
2019-02-21T13:30:17.095Z,31.80
2019-02-21T13:32:48.002Z,28.43
2019-02-21T13:35:18.919Z,31.63
2019-02-21T13:37:49.734Z,31.93
2019-02-21T13:40:21.314Z,27.67
2019-02-21T13:42:52.368Z,28.17
2019-02-21T13:45:23.324Z,26.20
2019-02-21T13:47:54.200Z,29.63
2019-02-21T13:50:25.163Z,24.97
2019-02-21T13:52:56.053Z,25.80
2019-02-21T13:55:26.890Z,29.33
2019-02-21T13:57:57.929Z,28.57
2019-02-21T14:00:28.882Z,24.80
2019-02-21T14:02:59.838Z,30.30
2019-02-21T14:05:32.085Z,29.00
2019-02-21T14:08:03.032Z,45.47
2019-02-21T14:10:33.988Z,41.80
2019-02-21T14:13:04.908Z,67.27
2019-02-21T14:15:35.843Z,114.87
2019-02-21T14:18:06.799Z,97.70
2019-02-21T14:20:45.481Z,41.33
2019-02-21T14:23:10.190Z,51.80
2019-02-21T14:25:41.369Z,48.97
2019-02-21T14:28:12.245Z,44.70
2019-02-21T14:30:43.242Z,38.33
2019-02-21T14:33:14.145Z,40.27
2019-02-21T14:35:45.136Z,43.03
2019-02-21T14:38:26.991Z,43.30
2019-02-21T14:40:48.606Z,31.87
2019-02-21T14:43:19.578Z,35.60
2019-02-21T14:45:50.499Z,36.83
2019-02-21T14:48:21.435Z,37.67
2019-02-21T14:50:52.381Z,32.37
2019-02-21T14:53:23.430Z,32.40
2019-02-21T14:55:54.333Z,36.67
2019-02-21T14:58:25.289Z,30.50
2019-02-21T15:00:56.217Z,29.67
2019-02-21T15:03:27.132Z,32.80
2019-02-21T15:05:58.108Z,33.90
2019-02-21T15:08:29.024Z,32.40
2019-02-21T15:10:59.991Z,34.53
2019-02-21T15:13:30.927Z,34.10
2019-02-21T15:16:01.904Z,41.10
2019-02-21T15:18:32.799Z,32.67
2019-02-21T15:21:03.738Z,37.20
2019-02-21T15:23:36.966Z,38.80
2019-02-21T15:26:07.269Z,42.73
2019-02-21T15:28:38.225Z,40.33
2019-02-21T15:31:09.162Z,33.23
2019-02-21T15:33:40.070Z,31.47
2019-02-21T15:36:11.014Z,38.67
2019-02-21T15:38:41.990Z,31.40
2019-02-21T15:41:12.867Z,34.03
2019-02-21T15:43:43.856Z,36.77
2019-02-21T15:46:14.771Z,34.60
2019-02-21T15:48:45.763Z,35.03
2019-02-21T15:51:16.973Z,32.13
2019-02-21T15:53:48.416Z,32.00
2019-02-21T15:56:19.346Z,35.33
2019-02-21T15:58:50.533Z,33.63
2019-02-21T16:01:21.408Z,31.67
2019-02-21T16:03:52.371Z,35.63
2019-02-21T16:06:23.350Z,45.50
2019-02-21T16:08:54.296Z,57.57
2019-02-21T16:11:25.244Z,63.87
2019-02-21T16:14:02.955Z,57.77
2019-02-21T16:16:28.942Z,48.83
2019-02-21T16:18:59.968Z,43.20
2019-02-21T16:21:30.810Z,50.87
2019-02-21T16:24:01.853Z,52.70
2019-02-21T16:26:32.814Z,55.53
2019-02-21T16:29:03.814Z,43.87
2019-02-21T16:31:34.775Z,55.87
2019-02-21T16:34:05.727Z,53.97
2019-02-21T16:36:36.687Z,55.07
2019-02-21T16:39:07.753Z,67.23
2019-02-21T16:41:38.720Z,59.40
2019-02-21T16:44:09.687Z,80.57
2019-02-21T16:46:40.623Z,93.87
2019-02-21T16:49:11.569Z,102.63
2019-02-21T16:51:42.525Z,124.43
2019-02-21T16:54:13.432Z,132.23
2019-02-21T16:56:44.399Z,128.27
2019-02-21T16:59:15.387Z,167.77
2019-02-21T17:01:46.323Z,95.03
2019-02-21T17:04:17.307Z,103.07
2019-02-21T17:06:48.243Z,79.50
2019-02-21T17:09:22.150Z,74.87
2019-02-21T17:11:53.029Z,61.60
2019-02-21T17:14:24.053Z,70.30
2019-02-21T17:16:54.980Z,97.47
2019-02-21T17:19:25.907Z,121.53
2019-02-21T17:21:56.823Z,96.80
2019-02-21T17:24:27.788Z,74.93
2019-02-21T17:26:58.684Z,61.10
2019-02-21T17:29:29.631Z,56.53
2019-02-21T17:32:00.517Z,56.37
2019-02-21T17:34:31.483Z,51.10
2019-02-21T17:37:02.431Z,54.27
2019-02-21T17:39:33.388Z,100.37
2019-02-21T17:42:04.256Z,66.57
2019-02-21T17:44:35.199Z,83.33
2019-02-21T17:47:06.136Z,52.57
2019-02-21T17:49:37.051Z,51.73
2019-02-21T17:52:08.171Z,51.77
2019-02-21T17:54:39.101Z,59.30
2019-02-21T17:57:10.040Z,49.23
2019-02-21T17:59:40.947Z,58.00
2019-02-21T18:02:29.587Z,61.43
2019-02-21T18:05:18.722Z,47.70
2019-02-21T18:08:08.212Z,44.33
2019-02-21T18:10:57.284Z,48.27
2019-02-21T18:13:28.248Z,45.93
2019-02-21T18:16:17.266Z,49.47
2019-02-21T18:19:06.388Z,49.07
2019-02-21T18:21:55.658Z,44.60
2019-02-21T18:24:44.209Z,54.20
2019-02-21T18:27:52.414Z,59.10
2019-02-21T18:30:41.075Z,59.20
2019-02-21T18:33:29.617Z,67.20
2019-02-21T18:36:18.268Z,61.77
2019-02-21T18:39:08.208Z,55.50
2019-02-21T18:41:57.519Z,54.90
2019-02-21T18:44:46.348Z,75.27
2019-02-21T18:47:35.606Z,60.97
2019-02-21T18:50:24.713Z,57.33
2019-02-21T18:53:13.890Z,55.03
2019-02-21T18:56:02.981Z,53.23
2019-02-21T18:58:33.998Z,67.53
2019-02-21T19:01:05.154Z,61.20
2019-02-21T19:03:36.053Z,56.70
2019-02-21T19:06:06.887Z,58.77
2019-02-21T19:08:37.733Z,47.77
2019-02-21T19:11:08.663Z,51.17
2019-02-21T19:13:39.518Z,51.80
2019-02-21T19:16:10.406Z,52.73
2019-02-21T19:18:41.389Z,57.43
2019-02-21T19:21:12.255Z,51.63
2019-02-21T19:23:43.161Z,54.10
2019-02-21T19:26:14.048Z,43.40
2019-02-21T19:28:45.035Z,51.13
2019-02-21T19:31:18.601Z,56.37
2019-02-21T19:33:49.497Z,58.43
2019-02-21T19:36:20.423Z,52.70
2019-02-21T19:38:51.320Z,54.43
2019-02-21T19:41:22.358Z,53.70
2019-02-21T19:43:53.222Z,54.57
2019-02-21T19:46:24.151Z,49.10
2019-02-21T19:48:55.076Z,51.40
2019-02-21T19:51:25.922Z,48.17
2019-02-21T19:53:56.899Z,46.97
2019-02-21T19:56:27.774Z,56.13
2019-02-21T19:58:58.662Z,56.13
2019-02-21T20:01:29.547Z,53.57
2019-02-21T20:04:00.554Z,54.30
2019-02-21T20:06:32.519Z,53.60
2019-02-21T20:09:04.858Z,52.93
2019-02-21T20:11:36.033Z,53.33
2019-02-21T20:14:06.969Z,57.37
2019-02-21T20:16:37.847Z,67.13
2019-02-21T20:19:08.743Z,163.73
2019-02-21T20:21:39.619Z,81.40
2019-02-21T20:24:10.527Z,66.37
2019-02-21T20:26:41.422Z,62.90
2019-02-21T20:29:12.377Z,61.53
2019-02-21T20:31:43.264Z,59.50
2019-02-21T20:34:14.170Z,57.97
2019-02-21T20:37:04.101Z,50.77
2019-02-21T20:39:34.997Z,54.63
2019-02-21T20:42:05.984Z,54.40
2019-02-21T20:44:36.884Z,48.60
2019-02-21T20:47:07.765Z,51.20
2019-02-21T20:49:38.622Z,47.50
2019-02-21T20:52:09.549Z,46.10
2019-02-21T20:54:40.438Z,52.13
2019-02-21T20:57:11.343Z,49.47
2019-02-21T20:59:42.180Z,49.47
2019-02-21T21:02:13.198Z,52.03
2019-02-21T21:04:44.041Z,51.20
2019-02-21T21:07:24.584Z,47.33
2019-02-21T21:09:47.375Z,53.03
2019-02-21T21:12:18.260Z,50.53
2019-02-21T21:14:49.076Z,50.23
2019-02-21T21:17:20.023Z,47.13
2019-02-21T21:19:50.879Z,55.23
2019-02-21T21:22:21.736Z,65.97
2019-02-21T21:24:52.582Z,49.93
2019-02-21T21:27:23.468Z,49.10
2019-02-21T21:29:54.336Z,47.23
2019-02-21T21:32:25.252Z,50.73
2019-02-21T21:34:58.778Z,54.33
2019-02-21T21:37:30.485Z,51.17
2019-02-21T21:40:01.764Z,51.80
2019-02-21T21:42:32.760Z,53.00
2019-02-21T21:45:03.594Z,52.40
2019-02-21T21:47:34.420Z,48.13
2019-02-21T21:50:05.918Z,52.63
2019-02-21T21:52:36.886Z,53.00
2019-02-21T21:55:07.793Z,48.33
2019-02-21T21:57:39.117Z,52.57
2019-02-21T22:00:13.055Z,51.10
2019-02-21T22:02:43.929Z,54.43
2019-02-21T22:05:14.836Z,52.23
2019-02-21T22:07:45.872Z,54.30
2019-02-21T22:10:16.898Z,58.87
2019-02-21T22:12:47.759Z,54.93
2019-02-21T22:15:18.651Z,57.60
2019-02-21T22:17:49.539Z,54.37
2019-02-21T22:20:20.414Z,64.00
2019-02-21T22:22:51.249Z,60.07
2019-02-21T22:25:22.158Z,61.27
2019-02-21T22:27:53.013Z,63.87
2019-02-21T22:30:23.950Z,58.23
2019-02-21T22:32:54.806Z,54.00
2019-02-21T22:35:25.692Z,64.80
2019-02-21T22:37:56.549Z,59.37
2019-02-21T22:40:27.445Z,54.97
2019-02-21T22:42:58.301Z,63.47
2019-02-21T22:45:29.188Z,63.30
2019-02-21T22:48:00.073Z,61.30
2019-02-21T22:50:30.951Z,63.03
2019-02-21T22:53:01.898Z,65.97
2019-02-21T22:55:32.783Z,64.37
2019-02-21T22:58:03.629Z,62.87
2019-02-21T23:01:03.923Z,61.50
2019-02-21T23:03:47.692Z,57.50
2019-02-21T23:06:50.705Z,61.73
2019-02-21T23:09:28.019Z,60.30
2019-02-21T23:11:58.352Z,62.87
2019-02-21T23:14:29.908Z,64.13
2019-02-21T23:17:00.816Z,69.10
2019-02-21T23:19:31.730Z,66.43
2019-02-21T23:22:02.617Z,71.43
2019-02-21T23:24:33.455Z,61.07
2019-02-21T23:27:04.309Z,57.93
2019-02-21T23:29:34.255Z,63.00
2019-02-21T23:32:05.065Z,62.13
2019-02-21T23:34:56.583Z,65.23
2019-02-21T23:37:27.461Z,63.43
2019-02-21T23:39:58.347Z,61.10
2019-02-21T23:42:29.225Z,63.93
2019-02-21T23:45:00.945Z,61.17
2019-02-21T23:47:31.775Z,76.47
2019-02-21T23:50:02.631Z,66.23
2019-02-21T23:52:33.538Z,75.33
2019-02-21T23:55:04.425Z,76.80
2019-02-21T23:57:35.320Z,76.10
